Terminal Aerodrome Forecast
Issued by NWS

Home | Current Version | Previous Version | Text Only | Print | Product List | Glossary On
Versions: 1 2 3 4 5 6 7 8 9 10 11 12 13 14 15 16 17 18 19 20 21 22 23 24 25 26
544
FTUS41 KPBZ 010621 AAA
TAFZZV
TAF AMD
KZZV 010621Z 0106/0206 18008KT 4SM -RA BR OVC008
     FM011200 19008KT P6SM VCSH OVC025
     FM011700 21006KT P6SM VCTS BKN035CB
     FM020000 VRB03KT P6SM VCSH BKN025=

USA.gov is the U.S. government's official web portal to all federal, state and local government web resources and services.